sensor_id;sensor_type;location;lat;lon;timestamp;P1;durP1;ratioP1;P2;durP2;ratioP2
72235;SDS011;60146;52.498;13.462;2023-01-28T00:01:10;8.27;;;2.30;;
72235;SDS011;60146;52.498;13.462;2023-01-28T00:03:36;8.50;;;2.77;;
72235;SDS011;60146;52.498;13.462;2023-01-28T00:06:04;7.60;;;2.80;;
72235;SDS011;60146;52.498;13.462;2023-01-28T00:08:30;5.07;;;2.47;;
72235;SDS011;60146;52.498;13.462;2023-01-28T00:10:59;6.23;;;2.50;;
72235;SDS011;60146;52.498;13.462;2023-01-28T00:13:24;12.30;;;2.90;;
72235;SDS011;60146;52.498;13.462;2023-01-28T00:15:53;7.03;;;2.40;;
72235;SDS011;60146;52.498;13.462;2023-01-28T00:18:19;9.23;;;2.50;;
72235;SDS011;60146;52.498;13.462;2023-01-28T00:20:54;6.67;;;2.67;;
72235;SDS011;60146;52.498;13.462;2023-01-28T00:23:19;4.80;;;2.23;;
72235;SDS011;60146;52.498;13.462;2023-01-28T00:25:44;6.53;;;2.40;;
72235;SDS011;60146;52.498;13.462;2023-01-28T00:28:09;8.00;;;3.00;;
72235;SDS011;60146;52.498;13.462;2023-01-28T00:30:35;7.53;;;2.30;;
72235;SDS011;60146;52.498;13.462;2023-01-28T00:33:01;8.83;;;2.63;;
72235;SDS011;60146;52.498;13.462;2023-01-28T00:35:26;7.07;;;2.47;;
72235;SDS011;60146;52.498;13.462;2023-01-28T00:37:51;8.77;;;3.00;;
72235;SDS011;60146;52.498;13.462;2023-01-28T00:40:16;6.70;;;2.33;;
72235;SDS011;60146;52.498;13.462;2023-01-28T00:42:42;5.17;;;2.30;;
72235;SDS011;60146;52.498;13.462;2023-01-28T00:45:07;9.03;;;2.53;;
72235;SDS011;60146;52.498;13.462;2023-01-28T00:47:32;9.03;;;2.70;;
72235;SDS011;60146;52.498;13.462;2023-01-28T00:49:57;6.07;;;2.43;;
72235;SDS011;60146;52.498;13.462;2023-01-28T00:52:23;9.80;;;4.07;;
72235;SDS011;60146;52.498;13.462;2023-01-28T00:54:48;10.20;;;3.73;;
72235;SDS011;60146;52.498;13.462;2023-01-28T00:57:13;7.60;;;3.20;;
72235;SDS011;60146;52.498;13.462;2023-01-28T00:59:38;10.53;;;3.57;;
72235;SDS011;60146;52.498;13.462;2023-01-28T01:02:03;4.20;;;2.40;;
72235;SDS011;60146;52.498;13.462;2023-01-28T01:04:36;8.20;;;2.90;;
72235;SDS011;60146;52.498;13.462;2023-01-28T01:07:01;9.43;;;3.20;;
72235;SDS011;60146;52.498;13.462;2023-01-28T01:09:26;8.43;;;2.90;;
72235;SDS011;60146;52.498;13.462;2023-01-28T01:11:51;9.00;;;3.20;;
72235;SDS011;60146;52.498;13.462;2023-01-28T01:14:17;10.87;;;2.80;;
72235;SDS011;60146;52.498;13.462;2023-01-28T01:16:42;7.30;;;2.57;;
72235;SDS011;60146;52.498;13.462;2023-01-28T01:19:07;7.50;;;2.67;;
72235;SDS011;60146;52.498;13.462;2023-01-28T01:21:33;9.17;;;2.80;;
72235;SDS011;60146;52.498;13.462;2023-01-28T01:23:58;9.70;;;2.77;;
72235;SDS011;60146;52.498;13.462;2023-01-28T01:26:23;8.07;;;2.93;;
72235;SDS011;60146;52.498;13.462;2023-01-28T01:28:51;8.93;;;2.80;;
72235;SDS011;60146;52.498;13.462;2023-01-28T01:31:17;9.43;;;2.87;;
72235;SDS011;60146;52.498;13.462;2023-01-28T01:33:43;10.33;;;3.00;;
72235;SDS011;60146;52.498;13.462;2023-01-28T01:36:09;8.93;;;2.90;;
72235;SDS011;60146;52.498;13.462;2023-01-28T01:38:35;8.60;;;2.90;;
72235;SDS011;60146;52.498;13.462;2023-01-28T01:41:01;9.03;;;2.87;;
72235;SDS011;60146;52.498;13.462;2023-01-28T01:43:45;8.60;;;2.47;;
72235;SDS011;60146;52.498;13.462;2023-01-28T01:46:13;9.40;;;3.17;;
72235;SDS011;60146;52.498;13.462;2023-01-28T01:48:41;8.47;;;2.43;;
72235;SDS011;60146;52.498;13.462;2023-01-28T01:51:07;9.57;;;2.90;;
72235;SDS011;60146;52.498;13.462;2023-01-28T01:53:34;5.43;;;2.30;;
72235;SDS011;60146;52.498;13.462;2023-01-28T01:56:01;6.80;;;2.20;;
72235;SDS011;60146;52.498;13.462;2023-01-28T01:58:29;8.63;;;2.37;;
72235;SDS011;60146;52.498;13.462;2023-01-28T02:00:55;4.77;;;2.20;;
72235;SDS011;60146;52.498;13.462;2023-01-28T02:03:23;6.87;;;2.17;;
72235;SDS011;60146;52.498;13.462;2023-01-28T02:05:51;7.88;;;2.58;;
72235;SDS011;60146;52.498;13.462;2023-01-28T02:08:16;6.07;;;2.13;;
72235;SDS011;60146;52.498;13.462;2023-01-28T02:10:48;5.03;;;2.17;;
72235;SDS011;60146;52.498;13.462;2023-01-28T02:13:15;8.37;;;2.37;;
72235;SDS011;60146;52.498;13.462;2023-01-28T02:15:41;8.63;;;2.83;;
72235;SDS011;60146;52.498;13.462;2023-01-28T02:18:08;6.60;;;2.20;;
72235;SDS011;60146;52.498;13.462;2023-01-28T02:26:12;5.23;;;1.90;;
72235;SDS011;60146;52.498;13.462;2023-01-28T02:31:16;4.17;;;2.10;;
72235;SDS011;60146;52.498;13.462;2023-01-28T02:33:45;5.00;;;1.90;;
72235;SDS011;60146;52.498;13.462;2023-01-28T02:38:57;5.30;;;1.80;;
72235;SDS011;60146;52.498;13.462;2023-01-28T02:41:30;5.67;;;2.00;;
72235;SDS011;60146;52.498;13.462;2023-01-28T02:43:56;8.43;;;2.30;;
72235;SDS011;60146;52.498;13.462;2023-01-28T02:49:10;7.23;;;2.10;;
72235;SDS011;60146;52.498;13.462;2023-01-28T02:54:17;7.80;;;2.30;;
72235;SDS011;60146;52.498;13.462;2023-01-28T02:56:56;9.85;;;2.17;;
72235;SDS011;60146;52.498;13.462;2023-01-28T02:59:26;5.50;;;2.07;;
72235;SDS011;60146;52.498;13.462;2023-01-28T03:02:01;6.13;;;1.90;;
72235;SDS011;60146;52.498;13.462;2023-01-28T03:04:30;5.13;;;2.00;;
72235;SDS011;60146;52.498;13.462;2023-01-28T03:06:59;7.03;;;1.90;;
72235;SDS011;60146;52.498;13.462;2023-01-28T03:09:28;6.13;;;1.48;;
72235;SDS011;60146;52.498;13.462;2023-01-28T03:12:04;6.03;;;1.90;;
72235;SDS011;60146;52.498;13.462;2023-01-28T03:15:08;4.17;;;1.83;;
72235;SDS011;60146;52.498;13.462;2023-01-28T03:20:47;5.20;;;1.80;;
72235;SDS011;60146;52.498;13.462;2023-01-28T03:23:39;5.67;;;1.70;;
72235;SDS011;60146;52.498;13.462;2023-01-28T03:26:24;5.63;;;2.10;;
72235;SDS011;60146;52.498;13.462;2023-01-28T03:29:11;3.93;;;1.77;;
72235;SDS011;60146;52.498;13.462;2023-01-28T03:31:55;4.07;;;1.70;;
72235;SDS011;60146;52.498;13.462;2023-01-28T03:34:39;5.47;;;1.90;;
72235;SDS011;60146;52.498;13.462;2023-01-28T03:37:23;5.80;;;1.70;;
72235;SDS011;60146;52.498;13.462;2023-01-28T03:39:50;4.57;;;2.13;;
72235;SDS011;60146;52.498;13.462;2023-01-28T03:42:16;4.07;;;1.83;;
72235;SDS011;60146;52.498;13.462;2023-01-28T03:44:43;5.50;;;2.00;;
72235;SDS011;60146;52.498;13.462;2023-01-28T03:47:22;4.83;;;1.93;;
72235;SDS011;60146;52.498;13.462;2023-01-28T03:49:49;7.80;;;2.03;;
72235;SDS011;60146;52.498;13.462;2023-01-28T03:52:18;4.93;;;1.97;;
72235;SDS011;60146;52.498;13.462;2023-01-28T03:54:45;5.90;;;2.78;;
72235;SDS011;60146;52.498;13.462;2023-01-28T03:57:14;4.80;;;2.07;;
72235;SDS011;60146;52.498;13.462;2023-01-28T03:59:39;4.20;;;1.70;;
72235;SDS011;60146;52.498;13.462;2023-01-28T04:02:05;6.27;;;1.83;;
72235;SDS011;60146;52.498;13.462;2023-01-28T04:04:32;3.53;;;1.57;;
72235;SDS011;60146;52.498;13.462;2023-01-28T04:06:58;5.00;;;1.80;;
72235;SDS011;60146;52.498;13.462;2023-01-28T04:09:24;4.73;;;1.60;;
72235;SDS011;60146;52.498;13.462;2023-01-28T04:11:49;3.33;;;1.77;;
72235;SDS011;60146;52.498;13.462;2023-01-28T04:14:15;4.10;;;2.10;;
72235;SDS011;60146;52.498;13.462;2023-01-28T04:16:41;5.60;;;1.67;;
72235;SDS011;60146;52.498;13.462;2023-01-28T04:19:07;4.60;;;1.90;;
72235;SDS011;60146;52.498;13.462;2023-01-28T04:21:32;4.47;;;1.60;;
72235;SDS011;60146;52.498;13.462;2023-01-28T04:23:58;2.80;;;1.43;;
72235;SDS011;60146;52.498;13.462;2023-01-28T04:26:26;3.27;;;1.40;;
72235;SDS011;60146;52.498;13.462;2023-01-28T04:28:51;2.57;;;1.43;;
72235;SDS011;60146;52.498;13.462;2023-01-28T04:31:17;2.77;;;1.33;;
72235;SDS011;60146;52.498;13.462;2023-01-28T04:33:42;4.17;;;1.70;;
72235;SDS011;60146;52.498;13.462;2023-01-28T04:36:07;3.97;;;1.60;;
72235;SDS011;60146;52.498;13.462;2023-01-28T04:38:33;4.77;;;2.00;;
72235;SDS011;60146;52.498;13.462;2023-01-28T04:40:58;2.87;;;1.60;;
72235;SDS011;60146;52.498;13.462;2023-01-28T04:43:23;2.33;;;1.40;;
72235;SDS011;60146;52.498;13.462;2023-01-28T04:45:48;3.67;;;1.90;;
72235;SDS011;60146;52.498;13.462;2023-01-28T04:48:14;3.80;;;1.60;;
72235;SDS011;60146;52.498;13.462;2023-01-28T04:50:40;8.47;;;1.70;;
72235;SDS011;60146;52.498;13.462;2023-01-28T04:53:05;5.20;;;1.90;;
72235;SDS011;60146;52.498;13.462;2023-01-28T04:55:31;4.23;;;1.70;;
72235;SDS011;60146;52.498;13.462;2023-01-28T04:57:56;4.20;;;1.60;;
72235;SDS011;60146;52.498;13.462;2023-01-28T05:00:21;8.90;;;3.37;;
72235;SDS011;60146;52.498;13.462;2023-01-28T05:02:46;6.87;;;2.00;;
72235;SDS011;60146;52.498;13.462;2023-01-28T05:05:12;5.17;;;2.53;;
72235;SDS011;60146;52.498;13.462;2023-01-28T05:07:37;4.57;;;2.73;;
72235;SDS011;60146;52.498;13.462;2023-01-28T05:10:02;6.07;;;2.00;;
72235;SDS011;60146;52.498;13.462;2023-01-28T05:12:28;2.70;;;1.80;;
72235;SDS011;60146;52.498;13.462;2023-01-28T05:14:54;2.90;;;1.70;;
72235;SDS011;60146;52.498;13.462;2023-01-28T05:17:19;4.20;;;1.70;;
72235;SDS011;60146;52.498;13.462;2023-01-28T05:19:44;5.50;;;1.70;;
72235;SDS011;60146;52.498;13.462;2023-01-28T05:22:10;3.77;;;1.40;;
72235;SDS011;60146;52.498;13.462;2023-01-28T05:24:35;3.93;;;1.63;;
72235;SDS011;60146;52.498;13.462;2023-01-28T05:27:00;3.60;;;1.57;;
72235;SDS011;60146;52.498;13.462;2023-01-28T05:29:26;2.67;;;1.50;;
72235;SDS011;60146;52.498;13.462;2023-01-28T05:31:51;4.53;;;1.40;;
72235;SDS011;60146;52.498;13.462;2023-01-28T05:34:16;3.47;;;1.80;;
72235;SDS011;60146;52.498;13.462;2023-01-28T05:36:41;3.30;;;1.60;;
72235;SDS011;60146;52.498;13.462;2023-01-28T05:39:06;6.17;;;1.60;;
72235;SDS011;60146;52.498;13.462;2023-01-28T05:41:32;7.50;;;1.73;;
72235;SDS011;60146;52.498;13.462;2023-01-28T05:43:57;3.20;;;1.70;;
72235;SDS011;60146;52.498;13.462;2023-01-28T05:46:23;4.27;;;1.90;;
72235;SDS011;60146;52.498;13.462;2023-01-28T05:48:49;10.40;;;2.73;;
72235;SDS011;60146;52.498;13.462;2023-01-28T05:51:15;7.63;;;2.00;;
72235;SDS011;60146;52.498;13.462;2023-01-28T05:53:40;4.20;;;1.63;;
72235;SDS011;60146;52.498;13.462;2023-01-28T05:56:05;5.37;;;1.70;;
72235;SDS011;60146;52.498;13.462;2023-01-28T05:58:31;4.57;;;1.70;;
72235;SDS011;60146;52.498;13.462;2023-01-28T06:00:56;3.50;;;1.47;;
72235;SDS011;60146;52.498;13.462;2023-01-28T06:03:22;9.37;;;2.20;;
72235;SDS011;60146;52.498;13.462;2023-01-28T06:05:47;5.57;;;2.37;;
72235;SDS011;60146;52.498;13.462;2023-01-28T06:08:13;6.07;;;2.30;;
72235;SDS011;60146;52.498;13.462;2023-01-28T06:10:38;10.47;;;2.60;;
72235;SDS011;60146;52.498;13.462;2023-01-28T06:13:03;6.93;;;2.67;;
72235;SDS011;60146;52.498;13.462;2023-01-28T06:15:28;8.53;;;3.00;;
72235;SDS011;60146;52.498;13.462;2023-01-28T06:17:54;7.50;;;2.93;;
72235;SDS011;60146;52.498;13.462;2023-01-28T06:20:19;8.33;;;2.97;;
72235;SDS011;60146;52.498;13.462;2023-01-28T06:22:44;12.03;;;3.20;;
72235;SDS011;60146;52.498;13.462;2023-01-28T06:25:10;8.57;;;3.33;;
72235;SDS011;60146;52.498;13.462;2023-01-28T06:27:35;10.50;;;3.33;;
72235;SDS011;60146;52.498;13.462;2023-01-28T06:30:00;11.77;;;3.93;;
72235;SDS011;60146;52.498;13.462;2023-01-28T06:32:26;7.80;;;3.17;;
72235;SDS011;60146;52.498;13.462;2023-01-28T06:34:51;11.00;;;3.80;;
72235;SDS011;60146;52.498;13.462;2023-01-28T06:37:16;11.93;;;3.60;;
72235;SDS011;60146;52.498;13.462;2023-01-28T06:39:41;11.80;;;4.00;;
72235;SDS011;60146;52.498;13.462;2023-01-28T06:42:07;9.80;;;4.23;;
72235;SDS011;60146;52.498;13.462;2023-01-28T06:44:32;11.93;;;3.80;;
72235;SDS011;60146;52.498;13.462;2023-01-28T06:46:57;11.37;;;4.00;;
72235;SDS011;60146;52.498;13.462;2023-01-28T06:49:22;10.87;;;4.00;;
72235;SDS011;60146;52.498;13.462;2023-01-28T06:51:48;10.33;;;4.27;;
72235;SDS011;60146;52.498;13.462;2023-01-28T06:54:13;11.13;;;4.10;;
72235;SDS011;60146;52.498;13.462;2023-01-28T06:56:38;13.67;;;4.50;;
72235;SDS011;60146;52.498;13.462;2023-01-28T06:59:03;13.80;;;4.67;;
72235;SDS011;60146;52.498;13.462;2023-01-28T07:01:29;9.03;;;3.83;;
72235;SDS011;60146;52.498;13.462;2023-01-28T07:03:54;14.47;;;4.27;;
72235;SDS011;60146;52.498;13.462;2023-01-28T07:06:20;12.67;;;4.60;;
72235;SDS011;60146;52.498;13.462;2023-01-28T07:08:45;11.70;;;4.13;;
72235;SDS011;60146;52.498;13.462;2023-01-28T07:11:11;12.50;;;3.83;;
72235;SDS011;60146;52.498;13.462;2023-01-28T07:13:36;12.27;;;4.23;;
72235;SDS011;60146;52.498;13.462;2023-01-28T07:16:01;11.13;;;4.03;;
72235;SDS011;60146;52.498;13.462;2023-01-28T07:18:28;11.13;;;3.60;;
72235;SDS011;60146;52.498;13.462;2023-01-28T07:20:53;9.73;;;4.00;;
72235;SDS011;60146;52.498;13.462;2023-01-28T07:23:18;12.37;;;5.03;;
72235;SDS011;60146;52.498;13.462;2023-01-28T07:25:43;18.37;;;4.20;;
72235;SDS011;60146;52.498;13.462;2023-01-28T07:28:09;9.13;;;3.70;;
72235;SDS011;60146;52.498;13.462;2023-01-28T07:30:35;11.07;;;4.27;;
72235;SDS011;60146;52.498;13.462;2023-01-28T07:33:00;10.53;;;3.40;;
72235;SDS011;60146;52.498;13.462;2023-01-28T07:35:25;11.47;;;3.30;;
72235;SDS011;60146;52.498;13.462;2023-01-28T07:37:54;9.43;;;3.10;;
72235;SDS011;60146;52.498;13.462;2023-01-28T07:40:19;7.77;;;2.40;;
72235;SDS011;60146;52.498;13.462;2023-01-28T07:42:44;7.37;;;2.47;;
72235;SDS011;60146;52.498;13.462;2023-01-28T07:45:10;6.10;;;2.23;;
72235;SDS011;60146;52.498;13.462;2023-01-28T07:47:35;6.87;;;2.60;;
72235;SDS011;60146;52.498;13.462;2023-01-28T07:50:00;7.40;;;2.67;;
72235;SDS011;60146;52.498;13.462;2023-01-28T07:52:25;7.37;;;2.60;;
72235;SDS011;60146;52.498;13.462;2023-01-28T07:58:27;5.77;;;2.77;;
72235;SDS011;60146;52.498;13.462;2023-01-28T08:00:59;6.47;;;2.63;;
72235;SDS011;60146;52.498;13.462;2023-01-28T08:03:26;9.43;;;3.60;;
72235;SDS011;60146;52.498;13.462;2023-01-28T08:05:52;7.17;;;3.10;;
72235;SDS011;60146;52.498;13.462;2023-01-28T08:08:19;9.07;;;3.10;;
72235;SDS011;60146;52.498;13.462;2023-01-28T08:10:46;10.77;;;3.17;;
72235;SDS011;60146;52.498;13.462;2023-01-28T08:13:12;7.30;;;3.33;;
72235;SDS011;60146;52.498;13.462;2023-01-28T08:15:37;9.87;;;3.00;;
72235;SDS011;60146;52.498;13.462;2023-01-28T08:18:03;8.03;;;2.80;;
72235;SDS011;60146;52.498;13.462;2023-01-28T08:20:29;9.23;;;3.30;;
72235;SDS011;60146;52.498;13.462;2023-01-28T08:23:13;6.93;;;3.10;;
72235;SDS011;60146;52.498;13.462;2023-01-28T08:25:45;9.40;;;3.20;;
72235;SDS011;60146;52.498;13.462;2023-01-28T08:28:11;13.93;;;4.37;;
72235;SDS011;60146;52.498;13.462;2023-01-28T08:30:46;9.43;;;3.23;;
72235;SDS011;60146;52.498;13.462;2023-01-28T08:33:15;11.97;;;3.83;;
72235;SDS011;60146;52.498;13.462;2023-01-28T08:35:49;7.37;;;3.30;;
72235;SDS011;60146;52.498;13.462;2023-01-28T08:38:17;11.60;;;3.60;;
72235;SDS011;60146;52.498;13.462;2023-01-28T08:40:56;12.00;;;3.53;;
72235;SDS011;60146;52.498;13.462;2023-01-28T08:43:22;10.23;;;3.13;;
72235;SDS011;60146;52.498;13.462;2023-01-28T08:45:48;10.80;;;3.87;;
72235;SDS011;60146;52.498;13.462;2023-01-28T08:48:14;15.23;;;3.97;;
72235;SDS011;60146;52.498;13.462;2023-01-28T08:50:40;10.90;;;3.50;;
72235;SDS011;60146;52.498;13.462;2023-01-28T08:53:12;13.00;;;3.53;;
72235;SDS011;60146;52.498;13.462;2023-01-28T08:55:38;7.50;;;2.93;;
72235;SDS011;60146;52.498;13.462;2023-01-28T08:58:04;5.37;;;2.10;;
72235;SDS011;60146;52.498;13.462;2023-01-28T09:00:29;6.83;;;2.60;;
72235;SDS011;60146;52.498;13.462;2023-01-28T09:02:54;5.87;;;2.03;;
72235;SDS011;60146;52.498;13.462;2023-01-28T09:05:23;6.37;;;2.00;;
72235;SDS011;60146;52.498;13.462;2023-01-28T09:07:48;3.47;;;1.80;;
72235;SDS011;60146;52.498;13.462;2023-01-28T09:10:13;5.40;;;1.87;;
72235;SDS011;60146;52.498;13.462;2023-01-28T09:12:40;4.37;;;1.60;;
72235;SDS011;60146;52.498;13.462;2023-01-28T09:15:05;4.27;;;1.63;;
72235;SDS011;60146;52.498;13.462;2023-01-28T09:17:31;4.07;;;1.40;;
72235;SDS011;60146;52.498;13.462;2023-01-28T09:19:56;5.43;;;1.43;;
72235;SDS011;60146;52.498;13.462;2023-01-28T09:22:21;2.90;;;1.57;;
72235;SDS011;60146;52.498;13.462;2023-01-28T09:24:52;4.50;;;1.40;;
72235;SDS011;60146;52.498;13.462;2023-01-28T09:27:17;5.80;;;1.60;;
72235;SDS011;60146;52.498;13.462;2023-01-28T09:29:43;5.97;;;1.57;;
72235;SDS011;60146;52.498;13.462;2023-01-28T09:32:08;4.20;;;1.50;;
72235;SDS011;60146;52.498;13.462;2023-01-28T09:34:33;3.23;;;1.20;;
72235;SDS011;60146;52.498;13.462;2023-01-28T09:36:58;5.60;;;1.37;;
72235;SDS011;60146;52.498;13.462;2023-01-28T09:39:24;2.43;;;1.10;;
72235;SDS011;60146;52.498;13.462;2023-01-28T09:46:59;3.27;;;1.27;;
72235;SDS011;60146;52.498;13.462;2023-01-28T09:51:53;4.87;;;1.00;;
72235;SDS011;60146;52.498;13.462;2023-01-28T09:54:23;6.03;;;1.50;;
72235;SDS011;60146;52.498;13.462;2023-01-28T09:56:52;2.30;;;1.03;;
72235;SDS011;60146;52.498;13.462;2023-01-28T09:59:18;3.57;;;0.83;;
72235;SDS011;60146;52.498;13.462;2023-01-28T10:07:08;5.50;;;1.00;;
72235;SDS011;60146;52.498;13.462;2023-01-28T10:09:52;2.70;;;0.97;;
72235;SDS011;60146;52.498;13.462;2023-01-28T10:12:27;4.43;;;0.83;;
72235;SDS011;60146;52.498;13.462;2023-01-28T10:17:38;2.30;;;0.80;;
72235;SDS011;60146;52.498;13.462;2023-01-28T10:20:06;4.87;;;1.20;;
72235;SDS011;60146;52.498;13.462;2023-01-28T10:25:34;4.63;;;1.30;;
72235;SDS011;60146;52.498;13.462;2023-01-28T10:28:00;4.27;;;1.37;;
72235;SDS011;60146;52.498;13.462;2023-01-28T10:30:27;1.63;;;1.00;;
72235;SDS011;60146;52.498;13.462;2023-01-28T10:33:04;2.47;;;0.80;;
72235;SDS011;60146;52.498;13.462;2023-01-28T10:35:37;3.27;;;0.97;;
72235;SDS011;60146;52.498;13.462;2023-01-28T10:38:04;4.73;;;0.60;;
72235;SDS011;60146;52.498;13.462;2023-01-28T10:40:31;1.33;;;0.60;;
72235;SDS011;60146;52.498;13.462;2023-01-28T10:42:56;3.63;;;1.10;;
72235;SDS011;60146;52.498;13.462;2023-01-28T10:45:22;6.70;;;1.00;;
72235;SDS011;60146;52.498;13.462;2023-01-28T10:47:51;5.53;;;0.90;;
72235;SDS011;60146;52.498;13.462;2023-01-28T10:50:22;1.80;;;0.60;;
72235;SDS011;60146;52.498;13.462;2023-01-28T10:52:58;5.70;;;0.93;;
72235;SDS011;60146;52.498;13.462;2023-01-28T10:55:25;0.87;;;0.60;;
72235;SDS011;60146;52.498;13.462;2023-01-28T10:57:51;1.63;;;0.63;;
72235;SDS011;60146;52.498;13.462;2023-01-28T11:00:21;3.00;;;0.60;;
72235;SDS011;60146;52.498;13.462;2023-01-28T11:05:26;2.95;;;0.52;;
72235;SDS011;60146;52.498;13.462;2023-01-28T11:10:35;2.63;;;0.80;;
72235;SDS011;60146;52.498;13.462;2023-01-28T11:13:02;2.97;;;0.70;;
72235;SDS011;60146;52.498;13.462;2023-01-28T11:15:28;4.23;;;1.00;;
72235;SDS011;60146;52.498;13.462;2023-01-28T11:17:57;6.87;;;1.10;;
72235;SDS011;60146;52.498;13.462;2023-01-28T11:20:23;1.90;;;0.73;;
72235;SDS011;60146;52.498;13.462;2023-01-28T11:22:49;4.00;;;0.80;;
72235;SDS011;60146;52.498;13.462;2023-01-28T11:25:16;4.23;;;0.80;;
72235;SDS011;60146;52.498;13.462;2023-01-28T11:27:45;4.43;;;1.40;;
72235;SDS011;60146;52.498;13.462;2023-01-28T11:30:28;7.43;;;1.20;;
72235;SDS011;60146;52.498;13.462;2023-01-28T11:32:57;3.77;;;1.23;;
72235;SDS011;60146;52.498;13.462;2023-01-28T11:37:52;5.00;;;0.83;;
72235;SDS011;60146;52.498;13.462;2023-01-28T11:40:17;1.93;;;0.90;;
72235;SDS011;60146;52.498;13.462;2023-01-28T11:42:45;4.27;;;0.90;;
72235;SDS011;60146;52.498;13.462;2023-01-28T11:45:15;9.70;;;1.07;;
72235;SDS011;60146;52.498;13.462;2023-01-28T11:50:47;3.90;;;0.90;;
72235;SDS011;60146;52.498;13.462;2023-01-28T11:53:07;2.00;;;0.80;;
72235;SDS011;60146;52.498;13.462;2023-01-28T11:56:35;4.05;;;0.52;;
72235;SDS011;60146;52.498;13.462;2023-01-28T12:06:15;5.63;;;1.43;;
72235;SDS011;60146;52.498;13.462;2023-01-28T12:08:49;7.50;;;1.20;;
72235;SDS011;60146;52.498;13.462;2023-01-28T12:17:01;2.93;;;0.90;;
72235;SDS011;60146;52.498;13.462;2023-01-28T12:19:45;2.53;;;1.10;;
72235;SDS011;60146;52.498;13.462;2023-01-28T12:30:00;2.57;;;1.10;;
72235;SDS011;60146;52.498;13.462;2023-01-28T12:42:41;2.43;;;0.90;;
72235;SDS011;60146;52.498;13.462;2023-01-28T12:45:20;2.13;;;1.10;;
72235;SDS011;60146;52.498;13.462;2023-01-28T12:47:49;4.23;;;1.33;;
72235;SDS011;60146;52.498;13.462;2023-01-28T12:50:37;3.73;;;1.60;;
72235;SDS011;60146;52.498;13.462;2023-01-28T12:53:04;2.93;;;1.10;;
72235;SDS011;60146;52.498;13.462;2023-01-28T12:55:47;4.70;;;1.20;;
72235;SDS011;60146;52.498;13.462;2023-01-28T12:58:32;2.70;;;1.00;;
72235;SDS011;60146;52.498;13.462;2023-01-28T13:01:00;6.93;;;1.00;;
72235;SDS011;60146;52.498;13.462;2023-01-28T13:06:03;3.43;;;1.20;;
72235;SDS011;60146;52.498;13.462;2023-01-28T13:08:30;2.57;;;1.10;;
72235;SDS011;60146;52.498;13.462;2023-01-28T13:10:56;3.60;;;0.80;;
72235;SDS011;60146;52.498;13.462;2023-01-28T13:13:32;1.93;;;0.80;;
72235;SDS011;60146;52.498;13.462;2023-01-28T13:15:58;3.17;;;0.83;;
72235;SDS011;60146;52.498;13.462;2023-01-28T13:20:59;2.80;;;1.63;;
72235;SDS011;60146;52.498;13.462;2023-01-28T13:25:53;2.53;;;0.90;;
72235;SDS011;60146;52.498;13.462;2023-01-28T13:28:29;5.23;;;0.80;;
72235;SDS011;60146;52.498;13.462;2023-01-28T13:31:05;4.13;;;0.80;;
72235;SDS011;60146;52.498;13.462;2023-01-28T13:33:35;4.53;;;0.90;;
72235;SDS011;60146;52.498;13.462;2023-01-28T13:36:02;4.72;;;1.00;;
72235;SDS011;60146;52.498;13.462;2023-01-28T13:38:30;3.00;;;0.93;;
72235;SDS011;60146;52.498;13.462;2023-01-28T13:40:57;2.57;;;0.90;;
72235;SDS011;60146;52.498;13.462;2023-01-28T13:46:02;5.40;;;1.07;;
72235;SDS011;60146;52.498;13.462;2023-01-28T13:48:30;5.57;;;1.30;;
72235;SDS011;60146;52.498;13.462;2023-01-28T13:50:56;1.20;;;0.80;;
72235;SDS011;60146;52.498;13.462;2023-01-28T13:53:35;2.83;;;0.97;;
72235;SDS011;60146;52.498;13.462;2023-01-28T13:56:04;3.87;;;1.17;;
72235;SDS011;60146;52.498;13.462;2023-01-28T13:58:39;4.80;;;1.17;;
72235;SDS011;60146;52.498;13.462;2023-01-28T14:01:20;3.60;;;0.87;;
72235;SDS011;60146;52.498;13.462;2023-01-28T14:08:48;3.03;;;0.90;;
72235;SDS011;60146;52.498;13.462;2023-01-28T14:18:58;2.57;;;1.03;;
72235;SDS011;60146;52.498;13.462;2023-01-28T14:21:24;3.77;;;0.93;;
72235;SDS011;60146;52.498;13.462;2023-01-28T14:23:52;1.90;;;0.87;;
72235;SDS011;60146;52.498;13.462;2023-01-28T14:31:49;2.40;;;1.00;;
72235;SDS011;60146;52.498;13.462;2023-01-28T14:34:28;5.07;;;1.50;;
72235;SDS011;60146;52.498;13.462;2023-01-28T14:36:55;1.00;;;0.70;;
72235;SDS011;60146;52.498;13.462;2023-01-28T14:39:23;4.90;;;1.10;;
72235;SDS011;60146;52.498;13.462;2023-01-28T14:41:48;2.80;;;1.00;;
72235;SDS011;60146;52.498;13.462;2023-01-28T14:46:53;3.60;;;1.23;;
72235;SDS011;60146;52.498;13.462;2023-01-28T14:54:28;1.70;;;0.90;;
72235;SDS011;60146;52.498;13.462;2023-01-28T14:57:17;1.77;;;0.80;;
72235;SDS011;60146;52.498;13.462;2023-01-28T14:59:54;1.17;;;0.80;;
72235;SDS011;60146;52.498;13.462;2023-01-28T15:02:23;5.53;;;2.20;;
72235;SDS011;60146;52.498;13.462;2023-01-28T15:04:48;2.80;;;1.10;;
72235;SDS011;60146;52.498;13.462;2023-01-28T15:07:18;2.37;;;1.00;;
72235;SDS011;60146;52.498;13.462;2023-01-28T15:09:44;2.58;;;0.95;;
72235;SDS011;60146;52.498;13.462;2023-01-28T15:12:09;3.17;;;1.03;;
72235;SDS011;60146;52.498;13.462;2023-01-28T15:14:35;2.37;;;0.93;;
72235;SDS011;60146;52.498;13.462;2023-01-28T15:17:00;1.77;;;0.60;;
72235;SDS011;60146;52.498;13.462;2023-01-28T15:19:27;4.00;;;1.00;;
72235;SDS011;60146;52.498;13.462;2023-01-28T15:21:53;1.40;;;0.73;;
72235;SDS011;60146;52.498;13.462;2023-01-28T15:24:19;2.07;;;0.93;;
72235;SDS011;60146;52.498;13.462;2023-01-28T15:26:45;3.87;;;1.27;;
72235;SDS011;60146;52.498;13.462;2023-01-28T15:29:24;2.53;;;1.10;;
72235;SDS011;60146;52.498;13.462;2023-01-28T15:31:50;3.97;;;1.43;;
72235;SDS011;60146;52.498;13.462;2023-01-28T15:34:18;3.37;;;1.00;;
72235;SDS011;60146;52.498;13.462;2023-01-28T15:36:44;3.43;;;1.13;;
72235;SDS011;60146;52.498;13.462;2023-01-28T15:39:15;2.83;;;1.03;;
72235;SDS011;60146;52.498;13.462;2023-01-28T15:41:42;3.57;;;1.40;;
72235;SDS011;60146;52.498;13.462;2023-01-28T15:44:17;2.17;;;0.90;;
72235;SDS011;60146;52.498;13.462;2023-01-28T15:46:44;2.23;;;0.93;;
72235;SDS011;60146;52.498;13.462;2023-01-28T15:49:13;4.20;;;1.20;;
72235;SDS011;60146;52.498;13.462;2023-01-28T15:51:38;1.70;;;1.20;;
72235;SDS011;60146;52.498;13.462;2023-01-28T15:54:04;2.23;;;1.13;;
72235;SDS011;60146;52.498;13.462;2023-01-28T15:56:31;2.77;;;1.13;;
72235;SDS011;60146;52.498;13.462;2023-01-28T15:59:06;2.63;;;0.97;;
72235;SDS011;60146;52.498;13.462;2023-01-28T16:01:32;2.87;;;1.47;;
72235;SDS011;60146;52.498;13.462;2023-01-28T16:04:03;1.50;;;1.10;;
72235;SDS011;60146;52.498;13.462;2023-01-28T16:06:36;2.63;;;1.30;;
72235;SDS011;60146;52.498;13.462;2023-01-28T16:09:21;4.70;;;1.63;;
72235;SDS011;60146;52.498;13.462;2023-01-28T16:11:47;1.83;;;1.00;;
72235;SDS011;60146;52.498;13.462;2023-01-28T16:14:23;2.97;;;1.10;;
72235;SDS011;60146;52.498;13.462;2023-01-28T16:16:50;4.80;;;1.70;;
72235;SDS011;60146;52.498;13.462;2023-01-28T16:21:50;3.30;;;1.40;;
72235;SDS011;60146;52.498;13.462;2023-01-28T16:24:22;5.17;;;1.57;;
72235;SDS011;60146;52.498;13.462;2023-01-28T16:26:58;4.43;;;1.30;;
72235;SDS011;60146;52.498;13.462;2023-01-28T16:29:25;1.73;;;1.10;;
72235;SDS011;60146;52.498;13.462;2023-01-28T16:31:51;1.40;;;1.00;;
72235;SDS011;60146;52.498;13.462;2023-01-28T16:34:16;3.87;;;1.00;;
72235;SDS011;60146;52.498;13.462;2023-01-28T16:36:41;12.53;;;3.70;;
72235;SDS011;60146;52.498;13.462;2023-01-28T16:39:07;2.70;;;0.87;;
72235;SDS011;60146;52.498;13.462;2023-01-28T16:41:33;1.20;;;0.80;;